Time;durP1;ratioP1;P1;durP2;ratioP2;P2;SDS_P1;SDS_P2;PMS_P1;PMS_P2;Temp;Humidity;BMP_temperature;BMP_pressure;BME280_temperature;BME280_humidity;BME280_pressure;Samples;Min_cycle;Max_cycle;Signal;HPM_P1;HPM_P2
2021/08/01 00:00:12;;;;;;;17.63;16.00;;;15.60;99.90;;;;;;5012405;28;20172;-89
2021/08/01 00:02:41;;;;;;;16.07;14.77;;;16.10;99.90;;;;;;5014480;28;20172;-89
2021/08/01 00:05:08;;;;;;;16.30;14.83;;;16.20;99.90;;;;;;4996550;28;20441;-89
2021/08/01 00:07:35;;;;;;;17.73;16.13;;;16.10;99.90;;;;;;4995953;28;20958;-89
2021/08/01 00:10:02;;;;;;;15.70;14.30;;;16.40;99.90;;;;;;4996740;28;20472;-89
2021/08/01 00:12:28;;;;;;;17.13;15.73;;;16.50;99.90;;;;;;5013708;28;20916;-88
2021/08/01 00:14:54;;;;;;;17.47;15.73;;;14.90;99.90;;;;;;5013902;28;20495;-88
2021/08/01 00:17:20;;;;;;;17.23;15.83;;;17.50;99.90;;;;;;5017496;28;20164;-89
2021/08/01 00:19:45;;;;;;;16.80;15.27;;;15.90;99.90;;;;;;5034713;28;20404;-89
2021/08/01 00:22:11;;;;;;;15.20;14.10;;;;;;;;;;5037761;28;20157;-88
2021/08/01 00:24:37;;;;;;;15.43;14.10;;;;;;;;;;5019669;28;20628;-90
2021/08/01 00:27:04;;;;;;;18.80;16.90;;;16.20;99.90;;;;;;5017255;28;20797;-89
2021/08/01 00:29:30;;;;;;;16.33;14.93;;;;;;;;;;5014761;28;20466;-88
2021/08/01 00:32:01;;;;;;;16.33;14.93;;;16.20;99.90;;;;;;5013798;28;20431;-89
2021/08/01 00:34:27;;;;;;;14.87;13.67;;;16.10;99.90;;;;;;5013758;28;20495;-88
2021/08/01 00:36:52;;;;;;;15.77;14.23;;;16.10;99.90;;;;;;5013410;28;20443;-88
2021/08/01 00:39:18;;;;;;;15.33;14.23;;;15.60;99.90;;;;;;4996049;28;20214;-88
2021/08/01 00:41:43;;;;;;;14.63;13.30;;;15.50;99.90;;;;;;5012335;28;20180;-88
2021/08/01 00:44:09;;;;;;;15.37;13.97;;;15.90;99.90;;;;;;5013789;28;20212;-89
2021/08/01 00:46:35;;;;;;;15.27;14.03;;;15.40;99.90;;;;;;5014079;28;20169;-89
2021/08/01 00:49:01;;;;;;;15.40;14.20;;;16.00;99.90;;;;;;5013718;28;20220;-88
2021/08/01 00:51:29;;;;;;;18.27;16.67;;;18.20;99.90;;;;;;5013820;28;20535;-89
2021/08/01 00:53:59;;;;;;;17.50;15.90;;;15.60;99.90;;;;;;5013321;28;20407;-89
2021/08/01 00:56:25;;;;;;;18.23;16.50;;;;;;;;;;4995956;28;20546;-89
2021/08/01 00:58:51;;;;;;;17.83;15.93;;;15.90;99.90;;;;;;4995732;28;20926;-89
2021/08/01 01:01:48;;;;;;;17.33;15.73;;;15.80;99.90;;;;;;5013546;28;20850;-89
2021/08/01 01:04:17;;;;;;;17.47;15.83;;;15.90;99.90;;;;;;4966027;28;20517;-89
2021/08/01 01:06:58;;;;;;;18.53;16.90;;;15.20;99.90;;;;;;4995846;28;20531;-88
2021/08/01 01:09:43;;;;;;;18.40;16.73;;;15.90;99.90;;;;;;4995673;28;20466;-88
2021/08/01 01:12:12;;;;;;;18.57;17.03;;;15.90;99.90;;;;;;5013086;28;20416;-88
2021/08/01 01:14:44;;;;;;;18.40;16.73;;;15.60;99.90;;;;;;5013174;28;20416;-89
2021/08/01 01:17:13;;;;;;;19.80;18.03;;;15.80;99.90;;;;;;5013257;28;20412;-89
2021/08/01 01:20:00;;;;;;;19.30;17.60;;;15.90;99.90;;;;;;4995681;28;20420;-89
2021/08/01 01:23:19;;;;;;;19.80;17.80;;;16.10;99.90;;;;;;5013204;28;20439;-88
2021/08/01 01:26:00;;;;;;;17.03;15.50;;;16.10;99.90;;;;;;4936804;29;20482;-89
2021/08/01 01:28:32;;;;;;;18.00;16.40;;;16.80;99.90;;;;;;5016326;28;20499;-89
2021/08/01 01:31:16;;;;;;;17.50;15.80;;;15.80;99.90;;;;;;5016998;28;20467;-89
2021/08/01 01:33:59;;;;;;;18.47;16.83;;;16.00;99.90;;;;;;5016439;28;20445;-89
2021/08/01 01:36:27;;;;;;;18.87;17.23;;;16.10;99.90;;;;;;5016075;28;20418;-89
2021/08/01 01:38:55;;;;;;;17.90;16.23;;;17.50;99.90;;;;;;5016238;28;20416;-88
2021/08/01 01:41:21;;;;;;;17.90;16.50;;;16.00;99.90;;;;;;5016035;28;20419;-88
2021/08/01 01:43:47;;;;;;;19.03;17.40;;;16.40;99.90;;;;;;4998499;28;20419;-89
2021/08/01 01:46:13;;;;;;;17.40;15.70;;;15.40;99.90;;;;;;5016089;28;20510;-89
2021/08/01 01:48:39;;;;;;;19.17;17.33;;;16.00;99.90;;;;;;5015959;28;20539;-89
2021/08/01 01:51:05;;;;;;;18.40;16.60;;;15.90;99.90;;;;;;4998590;28;20208;-89
2021/08/01 01:53:32;;;;;;;16.93;15.40;;;16.10;99.90;;;;;;4998264;28;20517;-89
2021/08/01 01:55:57;;;;;;;18.27;16.57;;;16.20;99.90;;;;;;5015843;28;20915;-88
2021/08/01 01:58:23;;;;;;;14.77;13.67;;;15.90;99.90;;;;;;5016126;28;20443;-89
2021/08/01 02:00:49;;;;;;;14.77;13.57;;;16.20;99.90;;;;;;4998532;28;20177;-89
2021/08/01 02:03:14;;;;;;;15.90;14.60;;;15.70;99.90;;;;;;4998191;28;20412;-89
2021/08/01 02:05:42;;;;;;;16.43;14.73;;;15.20;99.90;;;;;;5015706;28;20169;-90
2021/08/01 02:08:07;;;;;;;17.40;15.60;;;15.60;99.90;;;;;;5015758;28;20295;-89
2021/08/01 02:10:59;;;;;;;17.03;15.33;;;17.70;99.90;;;;;;4997870;28;20562;-88
2021/08/01 02:13:48;;;;;;;21.70;15.70;;;16.20;99.90;;;;;;5015798;28;20612;-89
2021/08/01 02:16:14;;;;;;;18.80;17.00;;;15.10;99.90;;;;;;5015597;28;20427;-88
2021/08/01 02:18:52;;;;;;;19.87;18.07;;;16.00;99.90;;;;;;5015467;28;20502;-88
2021/08/01 02:21:23;;;;;;;20.80;18.70;;;15.80;99.90;;;;;;5015577;28;20451;-88
2021/08/01 02:23:50;;;;;;;23.07;20.70;;;17.50;99.90;;;;;;4997828;28;20899;-89
2021/08/01 02:26:20;;;;;;;18.47;16.00;;;15.80;99.90;;;;;;5015741;28;20447;-89
2021/08/01 02:28:46;;;;;;;17.83;16.23;;;;;;;;;;5015701;28;20498;-87
2021/08/01 02:31:12;;;;;;;19.73;17.63;;;16.20;99.90;;;;;;5015820;28;20499;-89
2021/08/01 02:33:39;;;;;;;19.10;17.40;;;15.80;99.90;;;;;;5015308;28;20422;-89
2021/08/01 02:36:07;;;;;;;20.90;18.80;;;15.90;99.90;;;;;;4997783;28;20514;-89
2021/08/01 02:38:34;;;;;;;19.67;17.67;;;16.00;99.90;;;;;;5015118;28;20411;-89
2021/08/01 02:41:36;;;;;;;21.07;19.20;;;16.00;99.90;;;;;;4997603;28;20426;-89
2021/08/01 02:44:11;;;;;;;19.43;17.43;;;16.00;99.90;;;;;;4997527;28;20418;-89
2021/08/01 02:46:40;;;;;;;17.20;15.47;;;15.70;99.90;;;;;;5015118;28;20403;-89
2021/08/01 02:49:10;;;;;;;20.40;18.70;;;18.40;99.90;;;;;;4997189;28;20517;-89
2021/08/01 02:51:35;;;;;;;18.40;16.80;;;15.20;99.90;;;;;;5015046;28;20482;-89
2021/08/01 02:54:02;;;;;;;21.17;19.03;;;15.20;99.90;;;;;;4996912;28;20416;-89
2021/08/01 02:56:31;;;;;;;20.40;18.10;;;17.90;99.90;;;;;;5015006;28;20191;-89
2021/08/01 02:58:59;;;;;;;21.23;19.23;;;16.00;99.90;;;;;;5014756;28;20439;-87
2021/08/01 03:01:27;;;;;;;23.20;20.80;;;15.30;99.90;;;;;;4997019;28;20420;-89
2021/08/01 03:03:53;;;;;;;21.90;19.77;;;16.00;99.90;;;;;;5014839;28;20486;-89
2021/08/01 03:06:19;;;;;;;20.33;18.07;;;16.10;99.90;;;;;;5014673;28;20412;-89
2021/08/01 03:08:45;;;;;;;19.40;17.60;;;16.00;99.90;;;;;;5014784;28;20830;-89
2021/08/01 03:11:20;;;;;;;20.80;18.70;;;18.60;99.90;;;;;;5015525;28;20499;-90
2021/08/01 03:13:45;;;;;;;20.67;18.87;;;17.10;99.90;;;;;;5015735;28;20164;-89
2021/08/01 03:16:11;;;;;;;22.23;19.93;;;14.90;99.90;;;;;;5014951;28;20412;-89
2021/08/01 03:18:36;;;;;;;19.70;17.90;;;16.10;99.90;;;;;;5013095;28;20175;-89
2021/08/01 03:21:02;;;;;;;19.70;17.90;;;15.90;99.90;;;;;;5014233;28;20212;-89
2021/08/01 03:23:27;;;;;;;20.80;18.80;;;15.10;99.90;;;;;;5014638;28;20172;-89
2021/08/01 03:25:53;;;;;;;25.13;20.10;;;17.00;99.90;;;;;;5014003;28;20194;-88
2021/08/01 03:28:18;;;;;;;21.30;19.30;;;15.50;99.90;;;;;;5014009;28;20270;-88
2021/08/01 03:30:44;;;;;;;19.97;17.60;;;;;;;;;;5014476;28;20665;-90
2021/08/01 03:33:10;;;;;;;21.27;19.13;;;15.90;99.90;;;;;;4996969;28;20168;-90
2021/08/01 03:35:35;;;;;;;20.70;18.50;;;17.90;99.90;;;;;;5013047;28;20431;-89
2021/08/01 03:38:01;;;;;;;22.47;20.23;;;15.80;99.90;;;;;;5012962;28;20180;-88
2021/08/01 03:40:27;;;;;;;21.70;19.60;;;15.20;99.90;;;;;;4996601;28;20671;-89
2021/08/01 03:42:53;;;;;;;20.23;18.27;;;15.10;99.90;;;;;;5013074;28;20173;-90
2021/08/01 03:45:19;;;;;;;19.43;17.53;;;15.20;99.90;;;;;;5013915;28;20179;-90
2021/08/01 03:47:44;;;;;;;21.47;18.90;;;15.90;99.90;;;;;;4996103;28;20415;-90
2021/08/01 03:50:10;;;;;;;22.97;20.67;;;15.90;99.90;;;;;;4996204;28;20242;-90
2021/08/01 03:52:36;;;;;;;20.13;18.37;;;16.00;99.90;;;;;;5014159;28;20164;-90
2021/08/01 03:55:03;;;;;;;19.70;17.70;;;15.70;99.90;;;;;;5022895;28;20168;-90
2021/08/01 03:57:29;;;;;;;19.30;17.30;;;16.00;99.90;;;;;;5000963;28;20945;-90
2021/08/01 03:59:54;;;;;;;19.57;17.67;;;15.90;99.90;;;;;;5037216;28;20435;-90
2021/08/01 04:02:20;;;;;;;20.37;18.27;;;15.90;99.90;;;;;;5020102;28;20184;-89
2021/08/01 04:04:45;;;;;;;19.07;17.17;;;15.90;99.90;;;;;;5020303;28;20172;-90
2021/08/01 04:07:11;;;;;;;20.27;18.30;;;16.00;99.90;;;;;;5018227;28;20173;-89
2021/08/01 04:09:36;;;;;;;21.87;18.10;;;15.10;99.90;;;;;;5014454;28;20258;-89
2021/08/01 04:12:02;;;;;;;21.80;19.67;;;18.40;99.90;;;;;;4995980;28;20291;-90
2021/08/01 04:14:31;;;;;;;19.50;17.40;;;16.10;99.90;;;;;;5013848;28;20175;-89
2021/08/01 04:16:58;;;;;;;22.07;19.90;;;16.10;99.90;;;;;;5012654;28;20544;-90
2021/08/01 04:19:24;;;;;;;20.13;18.13;;;15.90;99.90;;;;;;5013295;28;20501;-90
2021/08/01 04:21:50;;;;;;;20.43;18.17;;;15.50;99.90;;;;;;5013438;28;20454;-89
2021/08/01 04:24:15;;;;;;;19.43;17.43;;;14.80;99.90;;;;;;5013792;28;20569;-89
2021/08/01 04:26:41;;;;;;;18.97;17.10;;;16.00;99.90;;;;;;5013424;28;20169;-89
2021/08/01 04:29:06;;;;;;;19.77;17.13;;;16.40;99.90;;;;;;5013376;28;20561;-89
2021/08/01 04:31:32;;;;;;;20.23;18.10;;;16.00;99.90;;;;;;4995721;28;20259;-88
2021/08/01 04:33:57;;;;;;;19.53;17.83;;;17.20;99.90;;;;;;4995890;28;20175;-89
2021/08/01 04:36:23;;;;;;;21.07;19.03;;;15.70;99.90;;;;;;4995753;28;20230;-88
2021/08/01 04:38:49;;;;;;;19.07;17.30;;;15.90;99.90;;;;;;5013266;28;20636;-88
2021/08/01 04:41:14;;;;;;;21.43;18.67;;;;;;;;;;5013202;28;20172;-88
2021/08/01 04:43:41;;;;;;;17.45;15.73;;;;;;;;;;4665173;28;9999872;-90
2021/08/01 04:46:06;;;;;;;18.23;16.60;;;16.20;99.90;;;;;;4991419;28;20463;-90
2021/08/01 04:48:32;;;;;;;19.73;17.63;;;14.70;99.90;;;;;;4990963;28;20465;-89
2021/08/01 04:50:57;;;;;;;20.63;18.73;;;15.70;99.90;;;;;;4990954;28;20287;-89
2021/08/01 04:53:23;;;;;;;20.00;18.00;;;15.80;99.90;;;;;;4973761;28;20633;-90
2021/08/01 04:55:48;;;;;;;17.90;16.07;;;16.00;99.90;;;;;;4973905;28;20586;-90
2021/08/01 04:58:14;;;;;;;18.87;16.90;;;16.00;99.90;;;;;;4992187;28;20714;-90
2021/08/01 05:00:39;;;;;;;18.07;16.57;;;16.30;99.90;;;;;;4994939;28;20525;-88
2021/08/01 05:03:05;;;;;;;17.57;15.80;;;17.10;99.90;;;;;;4994825;28;20173;-89
2021/08/01 05:05:38;;;;;;;15.77;13.50;;;17.60;99.90;;;;;;4995871;28;20657;-89
2021/08/01 05:08:05;;;;;;;15.60;14.20;;;15.70;99.90;;;;;;4994860;28;20201;-88
2021/08/01 05:10:31;;;;;;;15.20;13.77;;;16.40;99.90;;;;;;4994882;28;20467;-89
2021/08/01 05:12:57;;;;;;;14.13;12.93;;;15.90;99.60;;;;;;4994775;28;20935;-88
2021/08/01 05:15:22;;;;;;;13.70;12.40;;;16.10;99.90;;;;;;4994449;28;20428;-89
2021/08/01 05:17:48;;;;;;;13.30;12.10;;;14.80;98.30;;;;;;4994344;28;20181;-88
2021/08/01 05:20:14;;;;;;;12.03;11.03;;;18.70;99.90;;;;;;4994437;28;20701;-90
2021/08/01 05:22:40;;;;;;;12.17;11.10;;;16.70;98.60;;;;;;4976926;28;20182;-88
2021/08/01 05:25:06;;;;;;;11.80;10.73;;;19.30;99.80;;;;;;4995052;28;20613;-89
2021/08/01 05:27:31;;;;;;;13.13;11.07;;;16.70;98.00;;;;;;4994339;28;20161;-88
2021/08/01 05:29:57;;;;;;;14.33;11.80;;;;;;;;;;4994255;28;20471;-89
2021/08/01 05:32:23;;;;;;;11.23;10.33;;;16.80;97.20;;;;;;4976841;28;20188;-88
2021/08/01 05:34:48;;;;;;;11.87;10.73;;;15.80;96.90;;;;;;4976855;28;20962;-88
2021/08/01 05:37:14;;;;;;;12.97;11.87;;;16.40;96.80;;;;;;4976717;28;20183;-89
2021/08/01 05:39:40;;;;;;;12.50;11.40;;;16.90;97.20;;;;;;4976629;28;20180;-89
2021/08/01 05:42:05;;;;;;;13.20;12.00;;;15.80;96.40;;;;;;4976989;28;20574;-88
2021/08/01 05:44:36;;;;;;;12.50;11.27;;;16.90;97.80;;;;;;5001843;28;20664;-88
2021/08/01 05:47:06;;;;;;;11.60;10.50;;;19.10;98.80;;;;;;5013823;28;20169;-89
2021/08/01 05:49:33;;;;;;;12.33;10.60;;;;;;;;;;5013877;28;20463;-89
2021/08/01 05:51:59;;;;;;;14.53;10.83;;;;;;;;;;5013763;28;20412;-88
2021/08/01 05:54:25;;;;;;;13.07;11.90;;;17.00;95.60;;;;;;5014015;28;20420;-88
2021/08/01 05:56:50;;;;;;;10.73;9.80;;;16.90;96.80;;;;;;5013623;28;20482;-89
2021/08/01 05:59:16;;;;;;;11.80;10.60;;;16.70;95.50;;;;;;5013355;28;20252;-88
2021/08/01 06:01:41;;;;;;;10.87;9.77;;;17.10;95.70;;;;;;5013505;28;20172;-89
2021/08/01 06:04:07;;;;;;;11.50;10.50;;;17.20;95.20;;;;;;5007987;28;20208;-89
2021/08/01 06:06:32;;;;;;;10.63;9.60;;;17.20;94.60;;;;;;4995567;28;20184;-90
2021/08/01 06:08:58;;;;;;;9.90;9.10;;;19.00;95.10;;;;;;5012287;28;20183;-89
2021/08/01 06:11:24;;;;;;;9.80;9.10;;;17.60;94.10;;;;;;4985606;28;20311;-89
2021/08/01 06:13:49;;;;;;;10.90;9.90;;;17.60;92.70;;;;;;4992062;28;20185;-89
2021/08/01 06:16:16;;;;;;;9.80;8.90;;;17.40;92.60;;;;;;4976196;28;20181;-89
2021/08/01 06:18:42;;;;;;;9.33;8.63;;;18.40;91.10;;;;;;5000508;28;20176;-89
2021/08/01 06:21:17;;;;;;;9.03;8.10;;;18.00;91.00;;;;;;5011545;28;20466;-89
2021/08/01 06:23:50;;;;;;;9.00;8.30;;;17.60;84.90;;;;;;5013345;28;20634;-89
2021/08/01 06:26:20;;;;;;;8.70;8.17;;;19.40;84.80;;;;;;5012988;28;20451;-88
2021/08/01 06:28:46;;;;;;;9.97;8.53;;;19.70;82.30;;;;;;4995104;28;20428;-88
2021/08/01 06:31:12;;;;;;;9.47;8.67;;;20.70;78.20;;;;;;5012409;28;20478;-89
2021/08/01 06:33:41;;;;;;;8.83;8.13;;;20.00;73.80;;;;;;4994664;28;20602;-88
2021/08/01 06:36:08;;;;;;;9.70;8.90;;;22.10;73.30;;;;;;5012403;28;20453;-88
2021/08/01 06:38:35;;;;;;;8.93;8.17;;;21.50;68.60;;;;;;5012405;28;20447;-87
2021/08/01 06:41:01;;;;;;;10.07;9.07;;;22.20;69.40;;;;;;4994831;28;20513;-90
2021/08/01 06:43:27;;;;;;;9.40;8.70;;;21.10;67.40;;;;;;4994935;28;20428;-89
2021/08/01 06:45:52;;;;;;;8.87;8.20;;;22.00;66.40;;;;;;4975473;28;20803;-89
2021/08/01 06:48:18;;;;;;;10.57;9.57;;;22.00;67.90;;;;;;4992350;28;20228;-89
2021/08/01 06:50:44;;;;;;;9.73;8.73;;;22.20;69.70;;;;;;4975276;28;20308;-90
2021/08/01 06:53:10;;;;;;;14.30;9.93;;;;;;;;;;4975484;28;20174;-90
2021/08/01 06:55:35;;;;;;;8.60;7.90;;;21.40;64.40;;;;;;4991905;28;20423;-90
2021/08/01 06:58:01;;;;;;;10.00;9.00;;;;;;;;;;4986398;28;20415;-89
2021/08/01 07:00:27;;;;;;;10.50;9.63;;;21.60;63.10;;;;;;4994315;28;20558;-90
2021/08/01 07:03:01;;;;;;;9.60;8.90;;;21.50;62.50;;;;;;4994500;28;20427;-91
2021/08/01 07:05:27;;;;;;;11.93;10.67;;;21.70;62.20;;;;;;4994602;28;20172;-89
2021/08/01 07:07:55;;;;;;;10.00;9.20;;;21.80;63.30;;;;;;5011651;28;20438;-89
2021/08/01 07:10:20;;;;;;;9.20;8.43;;;23.70;61.90;;;;;;5011846;28;20908;-88
2021/08/01 07:12:46;;;;;;;10.47;9.47;;;21.50;59.50;;;;;;4994659;28;20446;-88
2021/08/01 07:15:13;;;;;;;9.73;7.70;;;23.70;59.60;;;;;;5011723;28;20177;-88
2021/08/01 07:17:39;;;;;;;8.10;7.30;;;22.80;58.50;;;;;;5012021;28;20828;-90
2021/08/01 07:20:09;;;;;;;9.17;8.30;;;23.20;57.90;;;;;;4994750;28;20423;-90
2021/08/01 07:22:35;;;;;;;7.67;6.87;;;22.70;57.30;;;;;;5009943;28;20428;-90
2021/08/01 07:25:01;;;;;;;8.97;7.17;;;25.70;62.70;;;;;;5011876;28;20477;-90
2021/08/01 07:27:26;;;;;;;7.60;7.00;;;23.40;76.30;;;;;;5012012;28;20415;-91
2021/08/01 07:29:52;;;;;;;6.30;5.90;;;23.80;59.80;;;;;;5012360;28;20525;-91
2021/08/01 07:32:17;;;;;;;6.50;6.00;;;25.80;58.50;;;;;;4994449;28;20568;-96
2021/08/01 07:34:43;;;;;;;8.13;6.20;;;24.40;56.30;;;;;;5029229;28;20177;-91
2021/08/01 07:37:09;;;;;;;6.50;5.93;;;;;;;;;;5031923;28;20222;-91
2021/08/01 07:39:37;;;;;;;6.13;5.40;;;25.50;51.60;;;;;;5021139;28;20180;-89
2021/08/01 07:42:03;;;;;;;6.90;6.40;;;27.20;52.00;;;;;;5013607;28;20435;-89
2021/08/01 07:44:36;;;;;;;7.00;6.63;;;;;;;;;;4986652;28;20440;-90
2021/08/01 07:47:04;;;;;;;6.17;5.67;;;25.50;50.30;;;;;;4991956;28;20173;-90
2021/08/01 07:49:30;;;;;;;5.53;5.10;;;25.10;52.10;;;;;;4991280;28;20502;-90
2021/08/01 07:51:56;;;;;;;6.90;6.40;;;;;;;;;;4974771;28;20793;-89
2021/08/01 07:54:21;;;;;;;6.23;5.43;;;24.40;51.10;;;;;;4991853;28;20224;-89
2021/08/01 07:56:47;;;;;;;4.80;4.50;;;23.60;50.90;;;;;;4992276;28;20421;-88
2021/08/01 07:59:13;;;;;;;6.50;5.87;;;;;;;;;;5011767;28;20180;-89
2021/08/01 08:01:39;;;;;;;6.10;5.53;;;23.00;52.70;;;;;;5010988;28;20172;-88
2021/08/01 08:04:04;;;;;;;5.80;4.07;;;22.00;53.60;;;;;;5010843;28;20418;-89
2021/08/01 08:06:30;;;;;;;7.10;5.00;;;25.90;55.80;;;;;;5011176;28;20173;-89
2021/08/01 08:08:56;;;;;;;5.90;5.43;;;;;;;;;;5010238;28;20173;-88
2021/08/01 08:11:21;;;;;;;4.53;4.23;;;22.50;53.30;;;;;;4993056;28;20682;-88
2021/08/01 08:13:47;;;;;;;4.80;4.43;;;;;;;;;;5010994;28;20422;-88
2021/08/01 08:16:12;;;;;;;4.27;3.90;;;22.60;53.80;;;;;;4993426;28;20623;-88
2021/08/01 08:18:38;;;;;;;3.60;3.37;;;21.80;53.10;;;;;;5011334;28;20810;-89
2021/08/01 08:21:04;;;;;;;4.33;3.40;;;22.80;52.20;;;;;;4994050;28;20254;-88
2021/08/01 08:23:32;;;;;;;4.30;4.20;;;25.50;52.30;;;;;;5011207;28;20223;-87
2021/08/01 08:26:02;;;;;;;6.60;4.73;;;25.00;53.70;;;;;;4993616;28;20551;-87
2021/08/01 08:28:27;;;;;;;4.93;4.50;;;21.40;51.40;;;;;;5011883;28;20500;-89
2021/08/01 08:30:53;;;;;;;5.17;4.00;;;24.20;54.00;;;;;;5010983;28;20941;-90
2021/08/01 08:33:18;;;;;;;4.70;4.30;;;23.90;52.50;;;;;;5013832;28;20184;-87
2021/08/01 08:35:44;;;;;;;3.20;3.10;;;24.70;51.80;;;;;;5014861;28;20176;-87
2021/08/01 08:38:09;;;;;;;4.40;3.67;;;24.60;54.50;;;;;;5014738;28;20168;-87
2021/08/01 08:40:38;;;;;;;4.97;3.67;;;24.60;49.30;;;;;;5015692;28;20165;-87
2021/08/01 08:43:11;;;;;;;4.00;3.70;;;25.50;49.70;;;;;;5015684;28;20176;-88
2021/08/01 08:45:37;;;;;;;3.70;3.53;;;27.50;50.40;;;;;;5019237;28;20416;-88
2021/08/01 08:48:05;;;;;;;3.07;2.97;;;24.80;47.50;;;;;;5018509;28;20494;-88
2021/08/01 08:50:33;;;;;;;3.80;3.60;;;25.90;48.40;;;;;;5000358;28;20470;-88
2021/08/01 08:53:04;;;;;;;3.43;3.33;;;24.80;48.10;;;;;;5017554;28;20415;-91
2021/08/01 08:55:35;;;;;;;3.87;3.77;;;27.10;50.90;;;;;;4999269;28;20506;-89
2021/08/01 08:58:06;;;;;;;4.17;3.97;;;24.60;48.90;;;;;;5013455;28;20454;-89
2021/08/01 09:00:33;;;;;;;3.80;3.60;;;24.30;49.40;;;;;;5009024;28;20782;-90
2021/08/01 09:02:59;;;;;;;5.40;3.47;;;;;;;;;;4998921;28;20440;-87
2021/08/01 09:05:25;;;;;;;5.90;3.83;;;24.20;49.80;;;;;;4998858;28;20777;-88
2021/08/01 09:07:51;;;;;;;5.70;3.80;;;;;;;;;;5001788;28;20798;-88
2021/08/01 09:10:17;;;;;;;4.20;3.80;;;;;;;;;;4999136;28;21068;-88
2021/08/01 09:12:52;;;;;;;3.80;3.57;;;23.70;55.00;;;;;;5017157;28;20408;-88
2021/08/01 09:15:21;;;;;;;3.60;3.50;;;23.80;56.20;;;;;;4999183;28;20411;-89
2021/08/01 09:17:48;;;;;;;5.77;4.20;;;24.30;52.40;;;;;;5017020;28;20438;-89
2021/08/01 09:20:26;;;;;;;3.97;3.67;;;25.20;57.20;;;;;;5016998;28;20407;-88
2021/08/01 09:23:01;;;;;;;5.67;5.13;;;25.30;46.90;;;;;;5016491;28;21058;-88
2021/08/01 09:25:32;;;;;;;5.10;4.33;;;25.20;56.40;;;;;;5017052;28;20411;-89
2021/08/01 09:28:20;;;;;;;5.57;5.17;;;23.00;52.90;;;;;;5017035;28;20415;-88
2021/08/01 09:30:51;;;;;;;8.03;5.10;;;23.70;52.30;;;;;;5016498;28;20521;-89
2021/08/01 09:33:31;;;;;;;5.67;5.37;;;21.90;52.00;;;;;;4999188;28;20408;-89
2021/08/01 09:36:14;;;;;;;6.10;5.60;;;26.00;53.20;;;;;;5016520;28;20450;-88
2021/08/01 09:38:49;;;;;;;5.87;5.47;;;24.20;51.80;;;;;;5016006;28;20754;-88
2021/08/01 09:41:17;;;;;;;8.67;6.20;;;25.00;52.70;;;;;;4998997;28;20548;-88
2021/08/01 09:43:51;;;;;;;6.23;5.87;;;22.60;50.50;;;;;;5015474;28;20914;-88
2021/08/01 09:46:18;;;;;;;5.53;5.03;;;23.20;50.30;;;;;;5016897;28;20410;-89
2021/08/01 09:48:44;;;;;;;5.23;4.50;;;23.70;52.00;;;;;;5015799;28;20809;-89
2021/08/01 09:51:11;;;;;;;4.43;4.23;;;25.50;52.10;;;;;;4998555;28;20472;-88
2021/08/01 09:53:39;;;;;;;4.30;4.10;;;25.60;50.60;;;;;;5016771;28;20161;-86
2021/08/01 09:56:15;;;;;;;6.30;5.63;;;24.80;47.80;;;;;;5015571;28;20497;-86
2021/08/01 09:58:41;;;;;;;4.50;4.27;;;25.80;46.40;;;;;;5016280;28;20439;-88
2021/08/01 10:01:07;;;;;;;4.33;3.97;;;26.30;45.90;;;;;;5015696;28;20426;-88
2021/08/01 10:03:40;;;;;;;4.43;4.20;;;28.70;47.70;;;;;;4998031;28;20423;-88
2021/08/01 10:06:13;;;;;;;4.47;4.30;;;26.50;44.20;;;;;;4998475;28;20231;-90
2021/08/01 10:08:50;;;;;;;4.63;4.37;;;26.50;44.30;;;;;;5019310;28;20493;-93
2021/08/01 10:11:28;;;;;;;4.10;4.00;;;29.40;44.80;;;;;;5023576;28;20471;-91
2021/08/01 10:13:57;;;;;;;3.90;3.70;;;28.80;45.30;;;;;;5000564;28;20419;-90
2021/08/01 10:16:23;;;;;;;4.33;4.03;;;26.60;43.40;;;;;;5016677;28;20467;-89
2021/08/01 10:18:52;;;;;;;8.67;3.97;;;27.90;47.80;;;;;;5001938;28;20423;-92
2021/08/01 10:21:22;;;;;;;3.40;3.30;;;26.50;44.30;;;;;;5001685;28;20443;-92
2021/08/01 10:24:12;;;;;;;3.70;3.47;;;27.20;51.80;;;;;;5019136;28;20419;-91
2021/08/01 10:26:51;;;;;;;3.50;3.40;;;28.40;41.60;;;;;;4993479;28;20419;-92
2021/08/01 10:29:41;;;;;;;4.30;3.90;;;28.10;41.90;;;;;;5017001;28;20423;-91
2021/08/01 10:32:09;;;;;;;3.80;3.70;;;27.80;42.00;;;;;;5002443;28;20428;-91
2021/08/01 10:35:06;;;;;;;4.63;3.90;;;27.00;44.20;;;;;;5017927;28;20439;-90
2021/08/01 10:37:39;;;;;;;4.10;3.80;;;26.20;43.90;;;;;;5003036;28;20420;-92
2021/08/01 10:40:09;;;;;;;4.77;4.30;;;26.60;44.60;;;;;;5002760;28;20466;-92
2021/08/01 10:42:41;;;;;;;4.23;3.97;;;25.50;50.80;;;;;;5019510;28;20503;-91
2021/08/01 10:45:07;;;;;;;4.27;4.17;;;25.70;45.30;;;;;;4999795;28;20535;-92
2021/08/01 10:47:35;;;;;;;4.73;4.50;;;25.30;47.20;;;;;;5016937;28;20569;-91
2021/08/01 10:50:07;;;;;;;4.37;4.00;;;28.10;46.60;;;;;;4999570;28;20547;-90
2021/08/01 10:52:35;;;;;;;4.00;3.90;;;26.20;46.50;;;;;;5016849;28;20474;-91
2021/08/01 10:55:03;;;;;;;5.17;3.57;;;25.90;48.40;;;;;;5000495;28;20423;-91
2021/08/01 10:57:29;;;;;;;3.50;3.30;;;24.50;43.70;;;;;;5018480;28;20437;-90
2021/08/01 10:59:58;;;;;;;4.50;4.20;;;;;;;;;;5000337;28;20982;-90
2021/08/01 11:02:25;;;;;;;3.30;3.20;;;25.30;44.60;;;;;;5013217;28;20416;-92
2021/08/01 11:04:52;;;;;;;7.00;6.50;;;29.20;48.10;;;;;;5017692;28;20419;-88
2021/08/01 11:07:26;;;;;;;3.80;3.63;;;25.30;47.00;;;;;;5006112;28;20416;-91
2021/08/01 11:10:05;;;;;;;3.30;3.10;;;24.50;45.30;;;;;;5004518;28;20451;-92
2021/08/01 11:12:36;;;;;;;3.67;3.47;;;26.30;45.20;;;;;;5000096;28;20510;-91
2021/08/01 11:15:09;;;;;;;4.30;4.20;;;28.50;47.00;;;;;;4997670;28;20954;-90
2021/08/01 11:17:46;;;;;;;6.63;4.77;;;25.10;45.70;;;;;;4980123;28;20444;-93
2021/08/01 11:20:24;;;;;;;4.30;4.10;;;26.20;47.10;;;;;;5006467;28;20453;-92
2021/08/01 11:22:56;;;;;;;4.10;3.83;;;24.70;46.00;;;;;;4999540;28;20458;-89
2021/08/01 11:25:36;;;;;;;3.90;3.80;;;25.50;46.70;;;;;;4998467;28;20416;-90
2021/08/01 11:28:08;;;;;;;4.50;4.30;;;27.10;47.10;;;;;;5018314;28;20442;-91
2021/08/01 11:30:52;;;;;;;4.40;4.10;;;25.00;46.70;;;;;;4998900;28;20482;-89
2021/08/01 11:33:47;;;;;;;4.70;4.30;;;25.50;49.80;;;;;;4998923;28;20443;-91
2021/08/01 11:36:12;;;;;;;6.00;5.60;;;26.00;47.70;;;;;;4999041;28;20419;-90
2021/08/01 11:38:56;;;;;;;4.23;4.03;;;25.70;48.50;;;;;;5001354;28;20443;-89
2021/08/01 11:41:42;;;;;;;4.30;4.10;;;27.50;47.50;;;;;;5000465;28;20169;-91
2021/08/01 11:44:26;;;;;;;4.20;4.10;;;27.80;46.40;;;;;;4999505;28;20419;-92
2021/08/01 11:47:11;;;;;;;4.50;4.20;;;25.60;44.60;;;;;;5019138;28;20408;-90
2021/08/01 11:49:42;;;;;;;4.03;3.70;;;26.70;44.50;;;;;;5016594;28;20463;-89
2021/08/01 11:52:10;;;;;;;4.03;3.63;;;29.20;46.80;;;;;;5018218;28;20423;-91
2021/08/01 11:54:39;;;;;;;3.63;3.53;;;27.60;42.70;;;;;;4324120;28;10000703;-92
2021/08/01 11:57:11;;;;;;;4.07;3.87;;;28.60;43.60;;;;;;5016782;28;20443;-92
2021/08/01 11:59:38;;;;;;;3.00;3.00;;;29.40;43.20;;;;;;5015821;28;20525;-88
2021/08/01 12:02:10;;;;;;;4.13;4.00;;;27.30;42.80;;;;;;5015885;28;20406;-89
2021/08/01 12:04:36;;;;;;;4.73;4.07;;;28.40;46.50;;;;;;4999075;28;20415;-91
2021/08/01 12:07:03;;;;;;;3.90;3.80;;;27.20;43.30;;;;;;5017992;28;20422;-90
2021/08/01 12:09:30;;;;;;;3.13;3.00;;;;;;;;;;4999728;28;20424;-93
2021/08/01 12:12:00;;;;;;;3.60;3.50;;;29.00;41.90;;;;;;4985712;28;20427;-91
2021/08/01 12:14:37;;;;;;;3.20;3.10;;;32.20;42.90;;;;;;5018379;28;20416;-91
2021/08/01 12:17:18;;;;;;;5.10;4.80;;;29.30;40.60;;;;;;5002182;28;20454;-91
2021/08/01 12:19:51;;;;;;;5.20;4.83;;;30.10;43.30;;;;;;5002898;28;20423;-90
2021/08/01 12:22:27;;;;;;;3.77;3.60;;;31.50;41.60;;;;;;5021885;28;20431;-92
2021/08/01 12:24:55;;;;;;;3.73;3.63;;;30.20;37.80;;;;;;5020147;28;20433;-92
2021/08/01 12:27:27;;;;;;;3.63;3.20;;;30.10;39.30;;;;;;5002117;28;20915;-92
2021/08/01 12:29:55;;;;;;;3.80;3.60;;;27.80;38.10;;;;;;5020735;28;20474;-90
2021/08/01 12:32:41;;;;;;;4.00;3.80;;;29.90;39.20;;;;;;5020652;28;20896;-90
2021/08/01 12:35:22;;;;;;;4.30;4.20;;;29.30;39.00;;;;;;4998430;28;20419;-92
2021/08/01 12:38:01;;;;;;;5.50;4.47;;;27.60;41.20;;;;;;5001284;28;20469;-91
2021/08/01 12:40:29;;;;;;;3.87;3.67;;;30.70;44.10;;;;;;5001906;28;20495;-87
2021/08/01 12:42:56;;;;;;;3.80;3.60;;;27.90;41.20;;;;;;5001808;28;20454;-91
2021/08/01 12:45:29;;;;;;;4.10;3.90;;;29.10;43.30;;;;;;5019150;28;20440;-89
2021/08/01 12:47:56;;;;;;;3.40;3.30;;;29.70;40.10;;;;;;4998836;28;20458;-87
2021/08/01 12:50:23;;;;;;;3.70;3.60;;;29.60;38.40;;;;;;5001472;28;20471;-90
2021/08/01 12:52:54;;;;;;;3.33;3.33;;;32.20;39.60;;;;;;5018400;28;20440;-91
2021/08/01 12:55:24;;;;;;;3.43;3.23;;;33.30;40.30;;;;;;5020273;28;20525;-92